sensor_id;sensor_type;location;lat;lon;timestamp;P1;durP1;ratioP1;P2;durP2;ratioP2
67278;SDS011;54193;53.746;10.058;2022-10-17T00:01:40;10.40;;;5.25;;
67278;SDS011;54193;53.746;10.058;2022-10-17T00:04:26;12.27;;;4.87;;
67278;SDS011;54193;53.746;10.058;2022-10-17T00:07:12;9.10;;;4.88;;
67278;SDS011;54193;53.746;10.058;2022-10-17T00:09:57;12.60;;;5.10;;
67278;SDS011;54193;53.746;10.058;2022-10-17T00:12:43;11.77;;;5.15;;
67278;SDS011;54193;53.746;10.058;2022-10-17T00:15:29;10.32;;;5.10;;
67278;SDS011;54193;53.746;10.058;2022-10-17T00:18:15;10.80;;;5.10;;
67278;SDS011;54193;53.746;10.058;2022-10-17T00:21:00;10.00;;;5.15;;
67278;SDS011;54193;53.746;10.058;2022-10-17T00:23:46;9.93;;;4.80;;
67278;SDS011;54193;53.746;10.058;2022-10-17T00:26:32;11.07;;;5.15;;
67278;SDS011;54193;53.746;10.058;2022-10-17T00:29:17;14.73;;;5.70;;
67278;SDS011;54193;53.746;10.058;2022-10-17T00:32:03;11.60;;;5.57;;
67278;SDS011;54193;53.746;10.058;2022-10-17T00:34:49;11.98;;;5.80;;
67278;SDS011;54193;53.746;10.058;2022-10-17T00:37:35;17.02;;;6.28;;
67278;SDS011;54193;53.746;10.058;2022-10-17T00:40:21;14.95;;;5.85;;
67278;SDS011;54193;53.746;10.058;2022-10-17T00:43:13;11.70;;;5.65;;
67278;SDS011;54193;53.746;10.058;2022-10-17T00:46:01;16.57;;;6.20;;
67278;SDS011;54193;53.746;10.058;2022-10-17T00:48:47;13.45;;;5.65;;
67278;SDS011;54193;53.746;10.058;2022-10-17T00:51:42;11.88;;;6.03;;
67278;SDS011;54193;53.746;10.058;2022-10-17T00:54:35;13.68;;;6.30;;
67278;SDS011;54193;53.746;10.058;2022-10-17T00:57:25;12.60;;;6.45;;
67278;SDS011;54193;53.746;10.058;2022-10-17T01:00:13;11.27;;;6.20;;
67278;SDS011;54193;53.746;10.058;2022-10-17T01:03:00;14.68;;;6.35;;
67278;SDS011;54193;53.746;10.058;2022-10-17T01:05:45;11.30;;;6.05;;
67278;SDS011;54193;53.746;10.058;2022-10-17T01:08:31;12.43;;;6.38;;
67278;SDS011;54193;53.746;10.058;2022-10-17T01:11:22;16.15;;;6.85;;
67278;SDS011;54193;53.746;10.058;2022-10-17T01:23:19;13.00;;;6.18;;
67278;SDS011;54193;53.746;10.058;2022-10-17T01:32:14;11.27;;;5.78;;
67278;SDS011;54193;53.746;10.058;2022-10-17T01:35:14;12.57;;;6.15;;
67278;SDS011;54193;53.746;10.058;2022-10-17T01:38:08;12.20;;;6.07;;
67278;SDS011;54193;53.746;10.058;2022-10-17T01:41:33;15.10;;;6.72;;
67278;SDS011;54193;53.746;10.058;2022-10-17T01:44:45;12.40;;;6.20;;
67278;SDS011;54193;53.746;10.058;2022-10-17T01:47:37;15.07;;;6.88;;
67278;SDS011;54193;53.746;10.058;2022-10-17T01:50:27;15.63;;;7.35;;
67278;SDS011;54193;53.746;10.058;2022-10-17T01:53:22;13.57;;;6.95;;
67278;SDS011;54193;53.746;10.058;2022-10-17T01:56:13;13.10;;;6.20;;
67278;SDS011;54193;53.746;10.058;2022-10-17T01:59:03;13.93;;;6.20;;
67278;SDS011;54193;53.746;10.058;2022-10-17T02:01:54;12.02;;;6.15;;
67278;SDS011;54193;53.746;10.058;2022-10-17T02:04:41;14.68;;;6.38;;
67278;SDS011;54193;53.746;10.058;2022-10-17T02:07:27;11.88;;;6.30;;
67278;SDS011;54193;53.746;10.058;2022-10-17T02:10:15;13.10;;;5.82;;
67278;SDS011;54193;53.746;10.058;2022-10-17T02:22:36;11.05;;;4.93;;
67278;SDS011;54193;53.746;10.058;2022-10-17T02:25:30;10.50;;;5.05;;
67278;SDS011;54193;53.746;10.058;2022-10-17T02:31:38;10.90;;;4.68;;
67278;SDS011;54193;53.746;10.058;2022-10-17T02:37:24;9.60;;;4.93;;
67278;SDS011;54193;53.746;10.058;2022-10-17T02:40:12;12.02;;;5.45;;
67278;SDS011;54193;53.746;10.058;2022-10-17T02:43:01;10.83;;;5.40;;
67278;SDS011;54193;53.746;10.058;2022-10-17T02:45:47;10.57;;;5.25;;
67278;SDS011;54193;53.746;10.058;2022-10-17T02:48:35;8.93;;;4.43;;
67278;SDS011;54193;53.746;10.058;2022-10-17T02:57:13;8.13;;;3.90;;
67278;SDS011;54193;53.746;10.058;2022-10-17T03:00:04;10.88;;;4.82;;
67278;SDS011;54193;53.746;10.058;2022-10-17T03:02:53;11.52;;;5.25;;
67278;SDS011;54193;53.746;10.058;2022-10-17T03:05:39;11.60;;;5.18;;
67278;SDS011;54193;53.746;10.058;2022-10-17T03:08:24;9.68;;;4.47;;
67278;SDS011;54193;53.746;10.058;2022-10-17T03:11:10;7.67;;;4.87;;
67278;SDS011;54193;53.746;10.058;2022-10-17T03:13:56;8.00;;;4.78;;
67278;SDS011;54193;53.746;10.058;2022-10-17T03:16:41;10.65;;;4.72;;
67278;SDS011;54193;53.746;10.058;2022-10-17T03:19:28;11.90;;;5.10;;
67278;SDS011;54193;53.746;10.058;2022-10-17T03:22:13;9.20;;;4.68;;
67278;SDS011;54193;53.746;10.058;2022-10-17T03:24:59;11.77;;;5.40;;
67278;SDS011;54193;53.746;10.058;2022-10-17T03:27:44;11.65;;;5.80;;
67278;SDS011;54193;53.746;10.058;2022-10-17T03:30:30;12.63;;;5.80;;
67278;SDS011;54193;53.746;10.058;2022-10-17T03:33:16;8.77;;;5.53;;
67278;SDS011;54193;53.746;10.058;2022-10-17T03:36:09;10.90;;;5.20;;
67278;SDS011;54193;53.746;10.058;2022-10-17T03:38:56;9.13;;;4.67;;
67278;SDS011;54193;53.746;10.058;2022-10-17T03:41:42;9.05;;;4.97;;
67278;SDS011;54193;53.746;10.058;2022-10-17T03:44:27;10.13;;;4.90;;
67278;SDS011;54193;53.746;10.058;2022-10-17T03:47:13;9.70;;;4.70;;
67278;SDS011;54193;53.746;10.058;2022-10-17T03:49:58;7.68;;;4.80;;
67278;SDS011;54193;53.746;10.058;2022-10-17T03:52:47;8.20;;;4.80;;
67278;SDS011;54193;53.746;10.058;2022-10-17T03:55:33;7.43;;;3.70;;
67278;SDS011;54193;53.746;10.058;2022-10-17T03:58:19;10.18;;;4.70;;
67278;SDS011;54193;53.746;10.058;2022-10-17T04:01:05;8.95;;;5.10;;
67278;SDS011;54193;53.746;10.058;2022-10-17T04:03:53;12.52;;;4.78;;
67278;SDS011;54193;53.746;10.058;2022-10-17T04:06:40;12.27;;;5.27;;
67278;SDS011;54193;53.746;10.058;2022-10-17T04:09:26;10.13;;;5.20;;
67278;SDS011;54193;53.746;10.058;2022-10-17T04:12:11;9.02;;;5.28;;
67278;SDS011;54193;53.746;10.058;2022-10-17T04:14:57;9.85;;;5.20;;
67278;SDS011;54193;53.746;10.058;2022-10-17T04:17:43;11.23;;;5.43;;
67278;SDS011;54193;53.746;10.058;2022-10-17T04:20:28;8.83;;;5.37;;
67278;SDS011;54193;53.746;10.058;2022-10-17T04:23:14;8.65;;;5.22;;
67278;SDS011;54193;53.746;10.058;2022-10-17T04:26:00;9.38;;;5.20;;
67278;SDS011;54193;53.746;10.058;2022-10-17T04:28:47;10.52;;;5.15;;
67278;SDS011;54193;53.746;10.058;2022-10-17T04:31:34;11.02;;;5.40;;
67278;SDS011;54193;53.746;10.058;2022-10-17T04:34:20;9.83;;;5.10;;
67278;SDS011;54193;53.746;10.058;2022-10-17T04:37:05;8.48;;;4.90;;
67278;SDS011;54193;53.746;10.058;2022-10-17T04:39:51;10.38;;;4.88;;
67278;SDS011;54193;53.746;10.058;2022-10-17T04:42:37;8.20;;;4.72;;
67278;SDS011;54193;53.746;10.058;2022-10-17T04:45:22;9.73;;;4.95;;
67278;SDS011;54193;53.746;10.058;2022-10-17T04:48:08;8.57;;;4.77;;
67278;SDS011;54193;53.746;10.058;2022-10-17T04:50:58;8.57;;;4.43;;
67278;SDS011;54193;53.746;10.058;2022-10-17T04:53:48;8.27;;;5.00;;
67278;SDS011;54193;53.746;10.058;2022-10-17T04:56:34;8.48;;;5.18;;
67278;SDS011;54193;53.746;10.058;2022-10-17T04:59:19;6.97;;;3.83;;
67278;SDS011;54193;53.746;10.058;2022-10-17T05:02:05;11.27;;;5.20;;
67278;SDS011;54193;53.746;10.058;2022-10-17T05:04:51;10.38;;;5.07;;
67278;SDS011;54193;53.746;10.058;2022-10-17T05:07:39;10.10;;;5.35;;
67278;SDS011;54193;53.746;10.058;2022-10-17T05:10:25;9.23;;;4.90;;
67278;SDS011;54193;53.746;10.058;2022-10-17T05:13:11;6.68;;;3.38;;
67278;SDS011;54193;53.746;10.058;2022-10-17T05:16:00;9.30;;;5.50;;
67278;SDS011;54193;53.746;10.058;2022-10-17T05:18:47;8.13;;;4.70;;
67278;SDS011;54193;53.746;10.058;2022-10-17T05:21:36;10.18;;;5.22;;
67278;SDS011;54193;53.746;10.058;2022-10-17T05:24:22;8.52;;;5.30;;
67278;SDS011;54193;53.746;10.058;2022-10-17T05:27:07;10.48;;;5.45;;
67278;SDS011;54193;53.746;10.058;2022-10-17T05:29:53;13.23;;;6.17;;
67278;SDS011;54193;53.746;10.058;2022-10-17T05:32:39;9.88;;;5.65;;
67278;SDS011;54193;53.746;10.058;2022-10-17T05:35:24;9.15;;;5.43;;
67278;SDS011;54193;53.746;10.058;2022-10-17T05:38:10;12.82;;;5.88;;
67278;SDS011;54193;53.746;10.058;2022-10-17T05:40:56;12.48;;;6.00;;
67278;SDS011;54193;53.746;10.058;2022-10-17T05:43:46;10.40;;;5.57;;
67278;SDS011;54193;53.746;10.058;2022-10-17T05:46:32;13.48;;;5.43;;
67278;SDS011;54193;53.746;10.058;2022-10-17T05:49:17;9.52;;;5.55;;
67278;SDS011;54193;53.746;10.058;2022-10-17T05:52:03;10.15;;;5.63;;
67278;SDS011;54193;53.746;10.058;2022-10-17T05:54:49;9.25;;;5.22;;
67278;SDS011;54193;53.746;10.058;2022-10-17T05:57:34;10.23;;;4.57;;
67278;SDS011;54193;53.746;10.058;2022-10-17T06:00:20;8.68;;;5.00;;
67278;SDS011;54193;53.746;10.058;2022-10-17T06:03:07;11.05;;;4.97;;
67278;SDS011;54193;53.746;10.058;2022-10-17T06:06:01;8.05;;;4.43;;
67278;SDS011;54193;53.746;10.058;2022-10-17T06:08:48;11.55;;;5.30;;
67278;SDS011;54193;53.746;10.058;2022-10-17T06:11:34;8.27;;;4.60;;
67278;SDS011;54193;53.746;10.058;2022-10-17T06:14:20;9.77;;;5.00;;
67278;SDS011;54193;53.746;10.058;2022-10-17T06:17:06;9.95;;;5.28;;
67278;SDS011;54193;53.746;10.058;2022-10-17T06:19:51;9.43;;;5.35;;
67278;SDS011;54193;53.746;10.058;2022-10-17T06:22:37;6.72;;;2.35;;
67278;SDS011;54193;53.746;10.058;2022-10-17T06:25:22;9.07;;;4.80;;
67278;SDS011;54193;53.746;10.058;2022-10-17T06:28:09;9.95;;;5.10;;
67278;SDS011;54193;53.746;10.058;2022-10-17T06:30:56;8.10;;;4.72;;
67278;SDS011;54193;53.746;10.058;2022-10-17T06:33:42;10.05;;;4.60;;
67278;SDS011;54193;53.746;10.058;2022-10-17T06:36:28;8.82;;;4.15;;
67278;SDS011;54193;53.746;10.058;2022-10-17T06:39:13;8.23;;;4.70;;
67278;SDS011;54193;53.746;10.058;2022-10-17T06:41:59;8.75;;;4.97;;
67278;SDS011;54193;53.746;10.058;2022-10-17T06:44:46;10.40;;;4.95;;
67278;SDS011;54193;53.746;10.058;2022-10-17T06:47:31;9.18;;;4.95;;
67278;SDS011;54193;53.746;10.058;2022-10-17T06:50:17;10.23;;;5.82;;
67278;SDS011;54193;53.746;10.058;2022-10-17T06:53:02;9.30;;;5.30;;
67278;SDS011;54193;53.746;10.058;2022-10-17T06:55:51;8.57;;;4.68;;
67278;SDS011;54193;53.746;10.058;2022-10-17T06:58:39;6.55;;;3.63;;
67278;SDS011;54193;53.746;10.058;2022-10-17T07:01:25;6.80;;;4.15;;
67278;SDS011;54193;53.746;10.058;2022-10-17T07:04:11;7.50;;;4.25;;
67278;SDS011;54193;53.746;10.058;2022-10-17T07:06:56;7.23;;;4.40;;
67278;SDS011;54193;53.746;10.058;2022-10-17T07:09:42;7.60;;;4.10;;
67278;SDS011;54193;53.746;10.058;2022-10-17T07:12:27;5.22;;;2.83;;
67278;SDS011;54193;53.746;10.058;2022-10-17T07:15:13;7.28;;;3.90;;
67278;SDS011;54193;53.746;10.058;2022-10-17T07:17:59;6.47;;;3.65;;
67278;SDS011;54193;53.746;10.058;2022-10-17T07:20:51;6.07;;;3.87;;
67278;SDS011;54193;53.746;10.058;2022-10-17T07:23:38;6.53;;;3.70;;
67278;SDS011;54193;53.746;10.058;2022-10-17T07:26:24;7.00;;;3.80;;
67278;SDS011;54193;53.746;10.058;2022-10-17T07:29:09;6.18;;;3.78;;
67278;SDS011;54193;53.746;10.058;2022-10-17T07:31:55;6.13;;;3.47;;
67278;SDS011;54193;53.746;10.058;2022-10-17T07:34:41;5.00;;;2.70;;
67278;SDS011;54193;53.746;10.058;2022-10-17T07:37:27;4.75;;;2.83;;
67278;SDS011;54193;53.746;10.058;2022-10-17T07:40:13;6.23;;;3.70;;
67278;SDS011;54193;53.746;10.058;2022-10-17T07:42:59;9.85;;;4.00;;
67278;SDS011;54193;53.746;10.058;2022-10-17T07:45:45;6.25;;;3.58;;
67278;SDS011;54193;53.746;10.058;2022-10-17T07:48:31;7.18;;;3.22;;
67278;SDS011;54193;53.746;10.058;2022-10-17T07:51:17;6.80;;;3.67;;
67278;SDS011;54193;53.746;10.058;2022-10-17T07:54:04;7.20;;;3.00;;
67278;SDS011;54193;53.746;10.058;2022-10-17T07:56:50;7.40;;;3.75;;
67278;SDS011;54193;53.746;10.058;2022-10-17T07:59:36;6.35;;;2.30;;
67278;SDS011;54193;53.746;10.058;2022-10-17T08:02:23;7.40;;;3.15;;
67278;SDS011;54193;53.746;10.058;2022-10-17T08:05:10;5.20;;;2.88;;
67278;SDS011;54193;53.746;10.058;2022-10-17T08:07:55;4.87;;;2.83;;
67278;SDS011;54193;53.746;10.058;2022-10-17T08:10:41;5.70;;;2.60;;
67278;SDS011;54193;53.746;10.058;2022-10-17T08:13:27;7.97;;;3.33;;
67278;SDS011;54193;53.746;10.058;2022-10-17T08:16:12;6.63;;;3.42;;
67278;SDS011;54193;53.746;10.058;2022-10-17T08:18:58;7.10;;;3.25;;
67278;SDS011;54193;53.746;10.058;2022-10-17T08:21:44;5.53;;;2.70;;
67278;SDS011;54193;53.746;10.058;2022-10-17T08:24:31;5.10;;;2.97;;
67278;SDS011;54193;53.746;10.058;2022-10-17T08:27:16;6.45;;;3.50;;
67278;SDS011;54193;53.746;10.058;2022-10-17T08:30:08;5.88;;;3.40;;
67278;SDS011;54193;53.746;10.058;2022-10-17T08:32:54;6.47;;;3.40;;
67278;SDS011;54193;53.746;10.058;2022-10-17T08:35:40;6.23;;;3.50;;
67278;SDS011;54193;53.746;10.058;2022-10-17T08:38:27;3.83;;;2.08;;
67278;SDS011;54193;53.746;10.058;2022-10-17T08:47:34;5.70;;;2.90;;
67278;SDS011;54193;53.746;10.058;2022-10-17T08:50:27;5.30;;;3.30;;
67278;SDS011;54193;53.746;10.058;2022-10-17T08:56:28;6.00;;;3.10;;
67278;SDS011;54193;53.746;10.058;2022-10-17T08:59:19;6.28;;;3.20;;
67278;SDS011;54193;53.746;10.058;2022-10-17T09:08:36;5.63;;;2.97;;
67278;SDS011;54193;53.746;10.058;2022-10-17T09:14:17;6.25;;;3.30;;
67278;SDS011;54193;53.746;10.058;2022-10-17T09:17:11;10.13;;;3.53;;
67278;SDS011;54193;53.746;10.058;2022-10-17T09:20:26;6.87;;;3.60;;
67278;SDS011;54193;53.746;10.058;2022-10-17T09:23:16;5.75;;;3.53;;
67278;SDS011;54193;53.746;10.058;2022-10-17T09:26:06;6.13;;;3.10;;
67278;SDS011;54193;53.746;10.058;2022-10-17T09:28:56;7.35;;;3.42;;
67278;SDS011;54193;53.746;10.058;2022-10-17T09:31:49;7.00;;;3.47;;
67278;SDS011;54193;53.746;10.058;2022-10-17T09:34:42;6.07;;;2.93;;
67278;SDS011;54193;53.746;10.058;2022-10-17T09:37:28;6.18;;;3.40;;
67278;SDS011;54193;53.746;10.058;2022-10-17T09:40:25;7.38;;;3.25;;
67278;SDS011;54193;53.746;10.058;2022-10-17T09:43:15;8.13;;;3.60;;
67278;SDS011;54193;53.746;10.058;2022-10-17T09:48:54;5.90;;;3.20;;
67278;SDS011;54193;53.746;10.058;2022-10-17T09:51:44;6.07;;;3.40;;
67278;SDS011;54193;53.746;10.058;2022-10-17T09:54:42;8.93;;;4.07;;
67278;SDS011;54193;53.746;10.058;2022-10-17T09:57:58;6.68;;;3.45;;
67278;SDS011;54193;53.746;10.058;2022-10-17T10:00:45;5.07;;;3.10;;
67278;SDS011;54193;53.746;10.058;2022-10-17T10:03:33;6.70;;;3.15;;
67278;SDS011;54193;53.746;10.058;2022-10-17T10:06:19;6.97;;;3.63;;
67278;SDS011;54193;53.746;10.058;2022-10-17T10:09:06;7.32;;;3.45;;
67278;SDS011;54193;53.746;10.058;2022-10-17T10:12:13;6.40;;;3.88;;
67278;SDS011;54193;53.746;10.058;2022-10-17T10:15:26;5.70;;;3.60;;
67278;SDS011;54193;53.746;10.058;2022-10-17T10:26:48;7.22;;;3.90;;
67278;SDS011;54193;53.746;10.058;2022-10-17T10:29:38;6.23;;;3.77;;
67278;SDS011;54193;53.746;10.058;2022-10-17T10:32:28;6.55;;;3.85;;
67278;SDS011;54193;53.746;10.058;2022-10-17T10:38:16;6.43;;;4.05;;
67278;SDS011;54193;53.746;10.058;2022-10-17T10:41:03;6.97;;;4.10;;
67278;SDS011;54193;53.746;10.058;2022-10-17T10:43:52;8.50;;;4.00;;
67278;SDS011;54193;53.746;10.058;2022-10-17T10:46:39;8.65;;;4.00;;
67278;SDS011;54193;53.746;10.058;2022-10-17T10:49:28;6.18;;;3.55;;
67278;SDS011;54193;53.746;10.058;2022-10-17T10:52:23;9.82;;;4.30;;
67278;SDS011;54193;53.746;10.058;2022-10-17T10:55:16;6.88;;;4.15;;
67278;SDS011;54193;53.746;10.058;2022-10-17T11:01:44;8.25;;;4.03;;
67278;SDS011;54193;53.746;10.058;2022-10-17T11:07:59;6.72;;;3.97;;
67278;SDS011;54193;53.746;10.058;2022-10-17T11:10:56;9.55;;;4.32;;
67278;SDS011;54193;53.746;10.058;2022-10-17T11:23:37;7.50;;;4.18;;
67278;SDS011;54193;53.746;10.058;2022-10-17T11:26:14;7.60;;;4.40;;
67278;SDS011;54193;53.746;10.058;2022-10-17T11:29:10;6.65;;;4.50;;
67278;SDS011;54193;53.746;10.058;2022-10-17T11:32:02;8.23;;;4.33;;
67278;SDS011;54193;53.746;10.058;2022-10-17T11:34:53;8.77;;;4.35;;
67278;SDS011;54193;53.746;10.058;2022-10-17T11:37:45;9.50;;;4.18;;
67278;SDS011;54193;53.746;10.058;2022-10-17T11:40:37;6.97;;;3.95;;
67278;SDS011;54193;53.746;10.058;2022-10-17T11:46:22;7.83;;;4.20;;
67278;SDS011;54193;53.746;10.058;2022-10-17T11:49:17;15.15;;;4.25;;
67278;SDS011;54193;53.746;10.058;2022-10-17T11:55:19;8.93;;;4.40;;
67278;SDS011;54193;53.746;10.058;2022-10-17T12:01:24;11.27;;;4.63;;
67278;SDS011;54193;53.746;10.058;2022-10-17T12:10:46;11.15;;;5.10;;
67278;SDS011;54193;53.746;10.058;2022-10-17T12:25:01;9.70;;;5.75;;
67278;SDS011;54193;53.746;10.058;2022-10-17T12:27:48;15.82;;;6.63;;
67278;SDS011;54193;53.746;10.058;2022-10-17T12:30:35;15.53;;;6.83;;
67278;SDS011;54193;53.746;10.058;2022-10-17T12:33:24;15.02;;;7.47;;
67278;SDS011;54193;53.746;10.058;2022-10-17T12:44:34;12.90;;;7.63;;
67278;SDS011;54193;53.746;10.058;2022-10-17T12:47:27;14.77;;;7.55;;
67278;SDS011;54193;53.746;10.058;2022-10-17T12:50:59;14.50;;;8.07;;
67278;SDS011;54193;53.746;10.058;2022-10-17T12:56:37;15.98;;;8.32;;
67278;SDS011;54193;53.746;10.058;2022-10-17T12:59:27;18.47;;;8.80;;
67278;SDS011;54193;53.746;10.058;2022-10-17T13:02:16;16.70;;;9.02;;
67278;SDS011;54193;53.746;10.058;2022-10-17T13:05:06;17.98;;;8.60;;
67278;SDS011;54193;53.746;10.058;2022-10-17T13:07:58;20.60;;;8.68;;
67278;SDS011;54193;53.746;10.058;2022-10-17T13:10:47;15.52;;;9.00;;
67278;SDS011;54193;53.746;10.058;2022-10-17T13:13:41;17.27;;;9.27;;
67278;SDS011;54193;53.746;10.058;2022-10-17T13:16:42;16.58;;;8.75;;
67278;SDS011;54193;53.746;10.058;2022-10-17T13:19:45;17.17;;;9.20;;
67278;SDS011;54193;53.746;10.058;2022-10-17T13:22:31;18.52;;;9.35;;
67278;SDS011;54193;53.746;10.058;2022-10-17T13:25:17;22.88;;;9.98;;
67278;SDS011;54193;53.746;10.058;2022-10-17T13:28:06;20.10;;;10.50;;
67278;SDS011;54193;53.746;10.058;2022-10-17T13:30:56;20.83;;;10.73;;
67278;SDS011;54193;53.746;10.058;2022-10-17T13:33:42;20.25;;;10.75;;
67278;SDS011;54193;53.746;10.058;2022-10-17T13:36:29;21.20;;;11.07;;
67278;SDS011;54193;53.746;10.058;2022-10-17T13:39:16;21.92;;;11.05;;
67278;SDS011;54193;53.746;10.058;2022-10-17T13:42:04;21.35;;;10.75;;
67278;SDS011;54193;53.746;10.058;2022-10-17T13:44:50;19.33;;;10.48;;
67278;SDS011;54193;53.746;10.058;2022-10-17T13:47:36;17.15;;;9.98;;
67278;SDS011;54193;53.746;10.058;2022-10-17T13:50:41;19.10;;;10.53;;
67278;SDS011;54193;53.746;10.058;2022-10-17T13:53:34;19.17;;;10.15;;
67278;SDS011;54193;53.746;10.058;2022-10-17T13:56:23;18.90;;;9.75;;
67278;SDS011;54193;53.746;10.058;2022-10-17T13:59:20;18.88;;;9.40;;
67278;SDS011;54193;53.746;10.058;2022-10-17T14:02:12;19.38;;;10.15;;
67278;SDS011;54193;53.746;10.058;2022-10-17T14:05:00;20.40;;;9.83;;
67278;SDS011;54193;53.746;10.058;2022-10-17T14:07:54;21.58;;;10.85;;
67278;SDS011;54193;53.746;10.058;2022-10-17T14:10:43;21.35;;;11.45;;
67278;SDS011;54193;53.746;10.058;2022-10-17T14:13:29;19.95;;;11.40;;
67278;SDS011;54193;53.746;10.058;2022-10-17T14:16:18;18.60;;;10.00;;
67278;SDS011;54193;53.746;10.058;2022-10-17T14:19:04;21.20;;;10.80;;
67278;SDS011;54193;53.746;10.058;2022-10-17T14:22:13;19.67;;;9.30;;
67278;SDS011;54193;53.746;10.058;2022-10-17T14:25:02;21.05;;;11.43;;
67278;SDS011;54193;53.746;10.058;2022-10-17T14:27:52;18.75;;;10.45;;
67278;SDS011;54193;53.746;10.058;2022-10-17T14:30:42;21.30;;;10.45;;
67278;SDS011;54193;53.746;10.058;2022-10-17T14:33:31;20.67;;;11.33;;
67278;SDS011;54193;53.746;10.058;2022-10-17T14:36:17;23.52;;;11.20;;
67278;SDS011;54193;53.746;10.058;2022-10-17T14:39:07;20.60;;;11.85;;
67278;SDS011;54193;53.746;10.058;2022-10-17T14:42:04;19.00;;;11.32;;
67278;SDS011;54193;53.746;10.058;2022-10-17T14:44:50;22.05;;;11.63;;
67278;SDS011;54193;53.746;10.058;2022-10-17T14:47:38;26.93;;;12.03;;
67278;SDS011;54193;53.746;10.058;2022-10-17T14:50:25;31.08;;;13.90;;
67278;SDS011;54193;53.746;10.058;2022-10-17T14:56:02;24.80;;;12.38;;
67278;SDS011;54193;53.746;10.058;2022-10-17T14:58:50;28.38;;;13.50;;
67278;SDS011;54193;53.746;10.058;2022-10-17T15:01:36;27.23;;;14.40;;
67278;SDS011;54193;53.746;10.058;2022-10-17T15:04:22;28.48;;;13.90;;
67278;SDS011;54193;53.746;10.058;2022-10-17T15:07:14;25.05;;;12.88;;
67278;SDS011;54193;53.746;10.058;2022-10-17T15:10:00;24.05;;;12.82;;
67278;SDS011;54193;53.746;10.058;2022-10-17T15:12:46;25.10;;;14.00;;
67278;SDS011;54193;53.746;10.058;2022-10-17T15:15:31;25.80;;;12.30;;
67278;SDS011;54193;53.746;10.058;2022-10-17T15:18:17;22.17;;;12.70;;
67278;SDS011;54193;53.746;10.058;2022-10-17T15:21:07;28.05;;;13.80;;
67278;SDS011;54193;53.746;10.058;2022-10-17T15:23:56;28.98;;;14.27;;
67278;SDS011;54193;53.746;10.058;2022-10-17T15:26:42;26.00;;;13.10;;
67278;SDS011;54193;53.746;10.058;2022-10-17T15:29:28;25.43;;;13.23;;
67278;SDS011;54193;53.746;10.058;2022-10-17T15:32:13;28.33;;;13.65;;
67278;SDS011;54193;53.746;10.058;2022-10-17T15:34:59;27.23;;;13.50;;
67278;SDS011;54193;53.746;10.058;2022-10-17T15:37:45;28.23;;;13.80;;
67278;SDS011;54193;53.746;10.058;2022-10-17T15:40:31;36.45;;;14.60;;
67278;SDS011;54193;53.746;10.058;2022-10-17T15:43:16;28.17;;;14.07;;
67278;SDS011;54193;53.746;10.058;2022-10-17T15:46:02;28.02;;;13.90;;
67278;SDS011;54193;53.746;10.058;2022-10-17T15:48:48;28.25;;;13.57;;
67278;SDS011;54193;53.746;10.058;2022-10-17T15:51:34;33.08;;;14.93;;
67278;SDS011;54193;53.746;10.058;2022-10-17T15:54:20;31.08;;;14.32;;
67278;SDS011;54193;53.746;10.058;2022-10-17T15:57:07;27.53;;;13.60;;
67278;SDS011;54193;53.746;10.058;2022-10-17T16:00:17;30.00;;;14.52;;
67278;SDS011;54193;53.746;10.058;2022-10-17T16:03:05;29.60;;;14.57;;
67278;SDS011;54193;53.746;10.058;2022-10-17T16:05:51;34.33;;;15.55;;
67278;SDS011;54193;53.746;10.058;2022-10-17T16:08:36;34.10;;;15.97;;
67278;SDS011;54193;53.746;10.058;2022-10-17T16:11:36;36.78;;;17.50;;
67278;SDS011;54193;53.746;10.058;2022-10-17T16:14:23;36.45;;;17.42;;
67278;SDS011;54193;53.746;10.058;2022-10-17T16:17:13;33.45;;;16.83;;
67278;SDS011;54193;53.746;10.058;2022-10-17T16:20:00;32.63;;;16.30;;
67278;SDS011;54193;53.746;10.058;2022-10-17T16:22:46;33.87;;;16.57;;
67278;SDS011;54193;53.746;10.058;2022-10-17T16:25:32;35.67;;;16.65;;
67278;SDS011;54193;53.746;10.058;2022-10-17T16:28:19;33.20;;;15.68;;
67278;SDS011;54193;53.746;10.058;2022-10-17T16:31:07;34.28;;;15.30;;
67278;SDS011;54193;53.746;10.058;2022-10-17T16:34:02;32.40;;;15.73;;
67278;SDS011;54193;53.746;10.058;2022-10-17T16:36:49;33.03;;;15.80;;
67278;SDS011;54193;53.746;10.058;2022-10-17T16:39:34;33.88;;;15.60;;
67278;SDS011;54193;53.746;10.058;2022-10-17T16:42:20;36.17;;;16.80;;
67278;SDS011;54193;53.746;10.058;2022-10-17T16:45:06;43.42;;;15.88;;
67278;SDS011;54193;53.746;10.058;2022-10-17T16:47:52;32.10;;;15.82;;
67278;SDS011;54193;53.746;10.058;2022-10-17T16:50:38;31.20;;;14.37;;
67278;SDS011;54193;53.746;10.058;2022-10-17T16:53:25;30.88;;;14.98;;
67278;SDS011;54193;53.746;10.058;2022-10-17T16:56:15;30.00;;;14.70;;
67278;SDS011;54193;53.746;10.058;2022-10-17T16:59:03;26.83;;;13.68;;
67278;SDS011;54193;53.746;10.058;2022-10-17T17:01:48;24.65;;;12.70;;
67278;SDS011;54193;53.746;10.058;2022-10-17T17:04:34;28.40;;;13.10;;
67278;SDS011;54193;53.746;10.058;2022-10-17T17:07:20;26.42;;;13.30;;
67278;SDS011;54193;53.746;10.058;2022-10-17T17:10:08;25.63;;;13.27;;
67278;SDS011;54193;53.746;10.058;2022-10-17T17:12:54;27.98;;;13.32;;
67278;SDS011;54193;53.746;10.058;2022-10-17T17:15:39;27.98;;;13.88;;
67278;SDS011;54193;53.746;10.058;2022-10-17T17:18:25;28.10;;;13.93;;
67278;SDS011;54193;53.746;10.058;2022-10-17T17:21:11;26.50;;;13.18;;
67278;SDS011;54193;53.746;10.058;2022-10-17T17:24:01;28.17;;;13.35;;
67278;SDS011;54193;53.746;10.058;2022-10-17T17:26:51;32.25;;;14.20;;
67278;SDS011;54193;53.746;10.058;2022-10-17T17:29:37;29.52;;;14.07;;
67278;SDS011;54193;53.746;10.058;2022-10-17T17:32:23;26.60;;;13.60;;
67278;SDS011;54193;53.746;10.058;2022-10-17T17:35:09;30.42;;;14.43;;
67278;SDS011;54193;53.746;10.058;2022-10-17T17:37:54;30.45;;;14.55;;
67278;SDS011;54193;53.746;10.058;2022-10-17T17:40:49;27.90;;;12.60;;
67278;SDS011;54193;53.746;10.058;2022-10-17T17:43:35;32.13;;;15.38;;
67278;SDS011;54193;53.746;10.058;2022-10-17T17:46:21;36.23;;;16.27;;
67278;SDS011;54193;53.746;10.058;2022-10-17T17:49:08;35.47;;;16.10;;
67278;SDS011;54193;53.746;10.058;2022-10-17T17:51:55;32.92;;;15.68;;
67278;SDS011;54193;53.746;10.058;2022-10-17T17:54:41;37.33;;;16.77;;
67278;SDS011;54193;53.746;10.058;2022-10-17T17:57:27;35.58;;;16.27;;
67278;SDS011;54193;53.746;10.058;2022-10-17T18:00:14;34.67;;;16.80;;
67278;SDS011;54193;53.746;10.058;2022-10-17T18:03:00;37.30;;;17.33;;
67278;SDS011;54193;53.746;10.058;2022-10-17T18:05:46;38.95;;;16.65;;
67278;SDS011;54193;53.746;10.058;2022-10-17T18:08:32;34.45;;;15.90;;
67278;SDS011;54193;53.746;10.058;2022-10-17T18:11:18;40.00;;;17.05;;
67278;SDS011;54193;53.746;10.058;2022-10-17T18:14:06;35.03;;;15.60;;
67278;SDS011;54193;53.746;10.058;2022-10-17T18:16:52;37.30;;;16.40;;
67278;SDS011;54193;53.746;10.058;2022-10-17T18:19:38;37.65;;;15.93;;
67278;SDS011;54193;53.746;10.058;2022-10-17T18:22:24;30.55;;;14.50;;
67278;SDS011;54193;53.746;10.058;2022-10-17T18:25:09;33.58;;;14.77;;
67278;SDS011;54193;53.746;10.058;2022-10-17T18:27:55;32.13;;;14.17;;
67278;SDS011;54193;53.746;10.058;2022-10-17T18:30:40;30.02;;;13.77;;
67278;SDS011;54193;53.746;10.058;2022-10-17T18:33:26;27.17;;;12.40;;
67278;SDS011;54193;53.746;10.058;2022-10-17T18:36:12;21.75;;;9.98;;